BVX01NF OMDB-YMML
Flight info
| Callsign | BVX01NF |
|---|---|
| Flight time | N/A |
| Altitude | 31000 |
| Route | ANVIX L223 TARDI N629 GIDAN P570 EMURU M300 MESAN/N0483F330 M300 VASTU P895 BIKOK M641 KAT N640 EGODU/N0479F350 N640 ELATI DCT 07S095E 10S098E DCT SAKAB/N0462F370 DCT BIBGA DCT ATLOD DCT OPALL DCT LST DCT SEEMO/N0450F390 DCT ISRED DCT DONBU DCT MTG Y53 ALAXO |
| Aircraft | A343/H-SDE2E3FGHIJ4J5M1RWXY/LB1D1 |
Departure
| Time | N/A |
|---|---|
| Airport | Dubai International Airport (OMDB) |
Arrival
| Time | 2026-05-04 21:22 |
|---|---|
| Airport | Melbourne Airport (YMML) |
| Time | Latitude | Longitude | Altitude | Speed | Heading |
|---|---|---|---|---|---|
| 2026-05-04 18:22 | -26.96345 | 119.12550 | 37255 ft | 538 kts | 127° |
| 2026-05-04 18:22 | -26.98352 | 119.16091 | 37275 ft | 538 kts | 127° |
| 2026-05-04 18:22 | -27.02366 | 119.23179 | 37266 ft | 538 kts | 127° |
| 2026-05-04 18:23 | -27.06376 | 119.30272 | 37274 ft | 538 kts | 127° |
| 2026-05-04 18:23 | -27.10388 | 119.37379 | 37278 ft | 538 kts | 127° |
| 2026-05-04 18:24 | -27.14356 | 119.44423 | 37277 ft | 536 kts | 127° |
| 2026-05-04 18:24 | -27.18342 | 119.51507 | 37280 ft | 536 kts | 127° |
| 2026-05-04 18:25 | -27.22317 | 119.58585 | 37283 ft | 536 kts | 127° |
| 2026-05-04 18:25 | -27.26298 | 119.65682 | 37285 ft | 536 kts | 127° |
| 2026-05-04 18:26 | -27.30269 | 119.72774 | 37288 ft | 536 kts | 127° |
| 2026-05-04 18:26 | -27.34241 | 119.79880 | 37288 ft | 536 kts | 127° |
| 2026-05-04 18:27 | -27.38208 | 119.86988 | 37300 ft | 536 kts | 127° |
| 2026-05-04 18:27 | -27.42149 | 119.94060 | 37287 ft | 537 kts | 127° |
| 2026-05-04 18:28 | -27.46118 | 120.01195 | 37312 ft | 537 kts | 127° |
| 2026-05-04 18:28 | -27.50070 | 120.08313 | 37293 ft | 533 kts | 126° |
| 2026-05-04 18:29 | -27.53995 | 120.15394 | 37298 ft | 532 kts | 127° |
| 2026-05-04 18:29 | -27.57915 | 120.22474 | 37298 ft | 532 kts | 127° |
| 2026-05-04 18:30 | -27.63765 | 120.33063 | 37301 ft | 532 kts | 126° |
| 2026-05-04 18:31 | -27.67671 | 120.40149 | 37310 ft | 530 kts | 126° |
| 2026-05-04 18:31 | -27.71560 | 120.47216 | 37300 ft | 529 kts | 127° |
| 2026-05-04 18:32 | -27.75440 | 120.54276 | 37303 ft | 529 kts | 126° |
| 2026-05-04 18:32 | -27.79320 | 120.61347 | 37303 ft | 529 kts | 126° |
| 2026-05-04 18:33 | -27.83163 | 120.68362 | 37307 ft | 529 kts | 126° |
| 2026-05-04 18:33 | -27.87143 | 120.75326 | 37303 ft | 525 kts | 130° |
| 2026-05-04 18:34 | -27.91397 | 120.82022 | 37306 ft | 524 kts | 131° |
| 2026-05-04 18:34 | -27.95663 | 120.88714 | 37306 ft | 524 kts | 130° |
| 2026-05-04 18:35 | -27.99877 | 120.95448 | 37317 ft | 524 kts | 130° |
| 2026-05-04 18:35 | -28.04063 | 121.02208 | 37310 ft | 524 kts | 130° |
| 2026-05-04 18:36 | -28.08239 | 121.08971 | 37311 ft | 524 kts | 130° |
| 2026-05-04 18:36 | -28.12387 | 121.15697 | 37313 ft | 524 kts | 130° |
| 2026-05-04 18:37 | -28.16562 | 121.22473 | 37314 ft | 524 kts | 130° |
| 2026-05-04 18:37 | -28.20727 | 121.29243 | 37321 ft | 523 kts | 130° |
| 2026-05-04 18:38 | -28.24898 | 121.36033 | 37315 ft | 523 kts | 130° |
| 2026-05-04 18:38 | -28.29059 | 121.42818 | 37315 ft | 523 kts | 130° |
| 2026-05-04 18:39 | -28.33211 | 121.49598 | 37316 ft | 523 kts | 130° |
| 2026-05-04 18:39 | -28.37337 | 121.56347 | 37319 ft | 523 kts | 129° |
| 2026-05-04 18:40 | -28.41481 | 121.63137 | 37324 ft | 522 kts | 129° |
| 2026-05-04 18:40 | -28.45619 | 121.69928 | 37324 ft | 522 kts | 129° |
| 2026-05-04 18:41 | -28.49758 | 121.76731 | 37323 ft | 522 kts | 129° |
| 2026-05-04 18:41 | -28.53867 | 121.83494 | 37347 ft | 522 kts | 129° |
| 2026-05-04 18:42 | -28.57992 | 121.90296 | 37322 ft | 521 kts | 129° |
| 2026-05-04 18:42 | -28.62106 | 121.97091 | 37324 ft | 521 kts | 129° |
| 2026-05-04 18:43 | -28.66214 | 122.03887 | 37325 ft | 521 kts | 129° |
| 2026-05-04 18:43 | -28.70331 | 122.10707 | 37325 ft | 521 kts | 129° |
| 2026-05-04 18:44 | -28.74434 | 122.17516 | 37325 ft | 520 kts | 128° |
| 2026-05-04 18:44 | -28.78527 | 122.24321 | 37326 ft | 520 kts | 128° |
| 2026-05-04 18:45 | -28.82590 | 122.31085 | 37325 ft | 520 kts | 128° |
| 2026-05-04 18:45 | -28.86677 | 122.37901 | 37327 ft | 520 kts | 128° |
| 2026-05-04 18:46 | -28.90748 | 122.44699 | 37332 ft | 519 kts | 128° |
| 2026-05-04 18:46 | -28.94832 | 122.51533 | 37333 ft | 519 kts | 128° |
| 2026-05-04 18:47 | -28.98903 | 122.58355 | 37331 ft | 519 kts | 128° |
| 2026-05-04 18:47 | -29.02946 | 122.65140 | 37332 ft | 519 kts | 128° |
| 2026-05-04 18:48 | -29.07009 | 122.71972 | 37331 ft | 520 kts | 128° |
| 2026-05-04 18:48 | -29.11075 | 122.78819 | 37330 ft | 520 kts | 128° |
| 2026-05-04 18:49 | -29.15136 | 122.85668 | 37331 ft | 520 kts | 128° |
| 2026-05-04 18:49 | -29.19190 | 122.92517 | 37339 ft | 520 kts | 128° |
| 2026-05-04 18:50 | -29.23244 | 122.99379 | 37343 ft | 519 kts | 128° |
| 2026-05-04 18:50 | -29.27259 | 123.06185 | 37337 ft | 519 kts | 127° |
| 2026-05-04 18:51 | -29.31297 | 123.13042 | 37335 ft | 519 kts | 127° |
| 2026-05-04 18:51 | -29.35338 | 123.19914 | 37338 ft | 519 kts | 127° |
| 2026-05-04 18:52 | -29.39366 | 123.26776 | 37349 ft | 519 kts | 127° |
| 2026-05-04 18:52 | -29.43390 | 123.33643 | 37341 ft | 518 kts | 127° |
| 2026-05-04 18:53 | -29.47402 | 123.40503 | 37334 ft | 518 kts | 127° |
| 2026-05-04 18:53 | -29.51419 | 123.47379 | 37330 ft | 518 kts | 127° |
| 2026-05-04 18:54 | -29.55432 | 123.54262 | 37338 ft | 518 kts | 127° |
| 2026-05-04 18:54 | -29.59408 | 123.61093 | 37339 ft | 517 kts | 127° |
| 2026-05-04 18:55 | -29.63405 | 123.67971 | 37340 ft | 517 kts | 127° |
| 2026-05-04 18:55 | -29.69394 | 123.78298 | 37339 ft | 517 kts | 127° |
| 2026-05-04 18:56 | -29.73382 | 123.85190 | 37340 ft | 517 kts | 127° |
| 2026-05-04 18:56 | -29.77366 | 123.92085 | 37344 ft | 517 kts | 127° |
| 2026-05-04 18:57 | -29.81346 | 123.98986 | 37344 ft | 517 kts | 127° |
| 2026-05-04 18:57 | -29.85320 | 124.05888 | 37343 ft | 517 kts | 127° |
| 2026-05-04 18:58 | -29.89265 | 124.12753 | 37344 ft | 517 kts | 127° |
| 2026-05-04 18:58 | -29.93227 | 124.19657 | 37344 ft | 517 kts | 127° |
| 2026-05-04 18:59 | -29.97190 | 124.26577 | 37344 ft | 516 kts | 127° |
| 2026-05-04 18:59 | -30.01130 | 124.33467 | 37344 ft | 516 kts | 127° |
| 2026-05-04 19:00 | -30.05092 | 124.40406 | 37350 ft | 516 kts | 127° |
| 2026-05-04 19:00 | -30.09041 | 124.47334 | 37349 ft | 516 kts | 127° |
| 2026-05-04 19:01 | -30.12322 | 124.53101 | 37346 ft | 516 kts | 127° |
| 2026-05-04 19:01 | -30.16901 | 124.61162 | 37346 ft | 516 kts | 127° |
| 2026-05-04 19:02 | -30.20832 | 124.68096 | 37347 ft | 516 kts | 127° |
| 2026-05-04 19:02 | -30.24759 | 124.75034 | 37348 ft | 516 kts | 127° |
| 2026-05-04 19:03 | -30.28027 | 124.80818 | 37345 ft | 516 kts | 127° |
| 2026-05-04 19:03 | -30.31954 | 124.87778 | 37346 ft | 516 kts | 127° |
| 2026-05-04 19:04 | -30.35874 | 124.94738 | 37348 ft | 516 kts | 127° |
| 2026-05-04 19:04 | -30.39789 | 125.01701 | 37347 ft | 516 kts | 127° |
| 2026-05-04 19:05 | -30.43701 | 125.08672 | 37352 ft | 516 kts | 127° |
| 2026-05-04 19:05 | -30.47590 | 125.15613 | 37352 ft | 516 kts | 127° |
| 2026-05-04 19:06 | -30.51491 | 125.22589 | 37354 ft | 516 kts | 127° |
| 2026-05-04 19:06 | -30.55396 | 125.29583 | 37354 ft | 516 kts | 127° |
| 2026-05-04 19:07 | -30.59296 | 125.36580 | 37354 ft | 516 kts | 127° |
| 2026-05-04 19:07 | -30.63168 | 125.43541 | 37354 ft | 516 kts | 127° |
| 2026-05-04 19:08 | -30.67059 | 125.50547 | 37359 ft | 516 kts | 127° |
| 2026-05-04 19:08 | -30.70946 | 125.57558 | 37354 ft | 516 kts | 127° |
| 2026-05-04 19:09 | -30.74825 | 125.64567 | 37354 ft | 516 kts | 127° |
| 2026-05-04 19:09 | -30.78704 | 125.71590 | 37358 ft | 516 kts | 127° |
| 2026-05-04 19:10 | -30.82577 | 125.78613 | 37352 ft | 516 kts | 127° |
| 2026-05-04 19:10 | -30.86452 | 125.85654 | 37349 ft | 516 kts | 127° |
| 2026-05-04 19:11 | -30.90363 | 125.92654 | 37352 ft | 515 kts | 128° |
| 2026-05-04 19:11 | -30.94343 | 125.99528 | 37345 ft | 514 kts | 128° |
| 2026-05-04 19:12 | -31.00337 | 126.09907 | 37346 ft | 514 kts | 128° |
| 2026-05-04 19:13 | -31.04310 | 126.16848 | 37345 ft | 514 kts | 128° |
| 2026-05-04 19:13 | -31.08273 | 126.23794 | 37350 ft | 514 kts | 128° |
| 2026-05-04 19:14 | -31.12233 | 126.30745 | 37351 ft | 514 kts | 128° |
| 2026-05-04 19:14 | -31.16188 | 126.37700 | 37347 ft | 514 kts | 128° |
| 2026-05-04 19:15 | -31.20113 | 126.44614 | 37351 ft | 514 kts | 128° |
| 2026-05-04 19:15 | -31.24065 | 126.51585 | 37348 ft | 514 kts | 128° |
| 2026-05-04 19:16 | -31.28008 | 126.58556 | 37344 ft | 513 kts | 128° |
| 2026-05-04 19:16 | -31.31944 | 126.65525 | 37345 ft | 513 kts | 128° |
| 2026-05-04 19:17 | -31.35874 | 126.72497 | 37354 ft | 513 kts | 128° |
| 2026-05-04 19:17 | -31.39797 | 126.79469 | 37346 ft | 512 kts | 128° |
| 2026-05-04 19:18 | -31.43713 | 126.86441 | 37346 ft | 512 kts | 128° |
| 2026-05-04 19:18 | -31.47593 | 126.93361 | 37349 ft | 512 kts | 128° |
| 2026-05-04 19:19 | -31.51501 | 127.00344 | 37346 ft | 512 kts | 128° |
| 2026-05-04 19:19 | -31.55398 | 127.07320 | 37343 ft | 511 kts | 127° |
| 2026-05-04 19:20 | -31.59289 | 127.14296 | 37341 ft | 511 kts | 127° |
| 2026-05-04 19:20 | -31.63177 | 127.21280 | 37348 ft | 511 kts | 127° |
| 2026-05-04 19:21 | -31.67058 | 127.28266 | 37335 ft | 510 kts | 127° |
| 2026-05-04 19:21 | -31.70932 | 127.35250 | 37334 ft | 510 kts | 127° |
| 2026-05-04 19:22 | -31.74802 | 127.42241 | 37334 ft | 510 kts | 127° |
| 2026-05-04 19:22 | -31.78668 | 127.49236 | 37337 ft | 510 kts | 127° |
| 2026-05-04 19:23 | -31.82524 | 127.56227 | 37333 ft | 510 kts | 127° |
| 2026-05-04 19:23 | -31.86354 | 127.63182 | 37330 ft | 510 kts | 127° |
| 2026-05-04 19:24 | -31.90208 | 127.70195 | 37345 ft | 510 kts | 127° |
| 2026-05-04 19:24 | -31.94050 | 127.77198 | 37330 ft | 509 kts | 127° |
| 2026-05-04 19:25 | -31.97888 | 127.84207 | 37326 ft | 509 kts | 127° |
| 2026-05-04 19:25 | -32.01723 | 127.91223 | 37322 ft | 509 kts | 127° |
| 2026-05-04 19:26 | -32.05549 | 127.98236 | 37322 ft | 509 kts | 127° |
| 2026-05-04 19:26 | -32.09355 | 128.05225 | 37322 ft | 509 kts | 127° |
| 2026-05-04 19:27 | -32.13175 | 128.12253 | 37322 ft | 509 kts | 127° |
| 2026-05-04 19:27 | -32.16998 | 128.19299 | 37330 ft | 509 kts | 127° |
| 2026-05-04 19:28 | -32.20808 | 128.26335 | 37318 ft | 508 kts | 127° |
| 2026-05-04 19:28 | -32.24591 | 128.33334 | 37319 ft | 507 kts | 126° |
| 2026-05-04 19:29 | -32.28385 | 128.40365 | 37318 ft | 508 kts | 126° |
| 2026-05-04 19:29 | -32.32178 | 128.47408 | 37316 ft | 507 kts | 126° |
| 2026-05-04 19:30 | -32.35958 | 128.54440 | 37314 ft | 506 kts | 126° |
| 2026-05-04 19:30 | -32.39738 | 128.61484 | 37315 ft | 506 kts | 126° |
| 2026-05-04 19:31 | -32.43513 | 128.68534 | 37316 ft | 506 kts | 126° |
| 2026-05-04 19:31 | -32.47244 | 128.75514 | 37313 ft | 505 kts | 126° |
| 2026-05-04 19:32 | -32.50993 | 128.82542 | 37314 ft | 504 kts | 126° |
| 2026-05-04 19:32 | -32.54742 | 128.89580 | 37326 ft | 505 kts | 126° |
| 2026-05-04 19:33 | -32.58486 | 128.96624 | 37304 ft | 504 kts | 125° |
| 2026-05-04 19:33 | -32.62214 | 129.03653 | 37302 ft | 503 kts | 125° |
| 2026-05-04 19:34 | -32.65941 | 129.10690 | 37323 ft | 503 kts | 125° |
| 2026-05-04 19:34 | -32.69637 | 129.17684 | 37308 ft | 503 kts | 125° |
| 2026-05-04 19:35 | -32.73347 | 129.24717 | 37309 ft | 502 kts | 125° |
| 2026-05-04 19:35 | -32.77053 | 129.31754 | 37306 ft | 502 kts | 125° |
| 2026-05-04 19:36 | -32.80756 | 129.38800 | 37309 ft | 502 kts | 124° |
| 2026-05-04 19:36 | -32.84455 | 129.45853 | 37306 ft | 501 kts | 124° |
| 2026-05-04 19:37 | -32.88147 | 129.52905 | 37304 ft | 501 kts | 124° |
| 2026-05-04 19:37 | -32.91806 | 129.59906 | 37313 ft | 501 kts | 124° |
| 2026-05-04 19:38 | -32.95484 | 129.66958 | 37308 ft | 501 kts | 124° |
| 2026-05-04 19:38 | -32.99154 | 129.74008 | 37307 ft | 501 kts | 124° |
| 2026-05-04 19:39 | -33.02817 | 129.81059 | 37301 ft | 501 kts | 124° |
| 2026-05-04 19:39 | -33.06483 | 129.88128 | 37302 ft | 500 kts | 124° |
| 2026-05-04 19:40 | -33.10119 | 129.95153 | 37302 ft | 500 kts | 124° |
| 2026-05-04 19:40 | -33.13772 | 130.02224 | 37302 ft | 500 kts | 124° |
| 2026-05-04 19:41 | -33.17423 | 130.09304 | 37305 ft | 500 kts | 124° |
| 2026-05-04 19:41 | -33.21065 | 130.16383 | 37292 ft | 499 kts | 124° |
| 2026-05-04 19:42 | -33.24675 | 130.23411 | 37295 ft | 499 kts | 124° |
| 2026-05-04 19:42 | -33.28307 | 130.30495 | 37305 ft | 500 kts | 123° |
| 2026-05-04 19:43 | -33.31942 | 130.37601 | 37297 ft | 500 kts | 123° |
| 2026-05-04 19:43 | -33.35566 | 130.44697 | 37293 ft | 500 kts | 123° |
| 2026-05-04 19:44 | -33.39165 | 130.51760 | 37293 ft | 500 kts | 123° |
| 2026-05-04 19:44 | -33.42796 | 130.58898 | 37292 ft | 500 kts | 123° |
| 2026-05-04 19:45 | -33.46414 | 130.66025 | 37292 ft | 500 kts | 123° |
| 2026-05-04 19:45 | -33.50028 | 130.73157 | 37300 ft | 500 kts | 123° |
| 2026-05-04 19:46 | -33.53609 | 130.80240 | 37293 ft | 500 kts | 123° |
| 2026-05-04 19:46 | -33.57211 | 130.87378 | 37292 ft | 500 kts | 123° |
| 2026-05-04 19:47 | -33.60808 | 130.94517 | 37291 ft | 500 kts | 123° |
| 2026-05-04 19:47 | -33.64408 | 131.01679 | 37292 ft | 501 kts | 123° |
| 2026-05-04 19:48 | -33.67999 | 131.08838 | 37290 ft | 501 kts | 123° |
| 2026-05-04 19:48 | -33.71587 | 131.16003 | 37290 ft | 501 kts | 123° |
| 2026-05-04 19:49 | -33.75171 | 131.23176 | 37288 ft | 501 kts | 123° |
| 2026-05-04 19:49 | -33.78760 | 131.30372 | 37287 ft | 501 kts | 123° |
| 2026-05-04 19:50 | -33.82319 | 131.37524 | 37287 ft | 501 kts | 123° |
| 2026-05-04 19:50 | -33.85892 | 131.44717 | 37284 ft | 501 kts | 123° |
| 2026-05-04 19:51 | -33.89469 | 131.51922 | 37287 ft | 501 kts | 123° |
| 2026-05-04 19:51 | -33.93187 | 131.59015 | 37286 ft | 501 kts | 125° |
| 2026-05-04 19:52 | -33.96964 | 131.66063 | 37282 ft | 501 kts | 124° |
| 2026-05-04 19:52 | -34.00725 | 131.73142 | 37281 ft | 501 kts | 124° |
| 2026-05-04 19:53 | -34.04461 | 131.80239 | 37281 ft | 501 kts | 124° |
| 2026-05-04 19:53 | -34.08164 | 131.87302 | 37279 ft | 501 kts | 124° |
| 2026-05-04 19:54 | -34.11887 | 131.94419 | 37282 ft | 501 kts | 124° |
| 2026-05-04 19:54 | -34.15605 | 132.01535 | 37279 ft | 501 kts | 124° |
| 2026-05-04 19:55 | -34.19321 | 132.08662 | 37282 ft | 502 kts | 124° |
| 2026-05-04 19:55 | -34.22413 | 132.14603 | 37276 ft | 502 kts | 124° |
| 2026-05-04 19:56 | -34.26127 | 132.21750 | 37281 ft | 502 kts | 124° |
| 2026-05-04 19:56 | -34.29834 | 132.28900 | 37278 ft | 502 kts | 124° |
| 2026-05-04 19:57 | -34.33541 | 132.36064 | 37279 ft | 502 kts | 124° |
| 2026-05-04 19:57 | -34.37243 | 132.43232 | 37274 ft | 502 kts | 124° |
| 2026-05-04 19:58 | -34.40936 | 132.50398 | 37279 ft | 502 kts | 124° |
| 2026-05-04 19:58 | -34.44601 | 132.57525 | 37274 ft | 502 kts | 124° |
| 2026-05-04 19:59 | -34.48286 | 132.64703 | 37274 ft | 502 kts | 124° |
| 2026-05-04 19:59 | -34.51969 | 132.71893 | 37273 ft | 502 kts | 124° |
| 2026-05-04 20:00 | -34.55650 | 132.79093 | 37273 ft | 502 kts | 124° |
| 2026-05-04 20:00 | -34.59331 | 132.86307 | 37276 ft | 502 kts | 124° |
| 2026-05-04 20:01 | -34.63002 | 132.93518 | 37273 ft | 502 kts | 124° |
| 2026-05-04 20:01 | -34.66675 | 133.00746 | 37271 ft | 502 kts | 124° |
| 2026-05-04 20:02 | -34.70318 | 133.07931 | 37272 ft | 502 kts | 124° |
| 2026-05-04 20:02 | -34.73983 | 133.15172 | 37271 ft | 503 kts | 124° |
| 2026-05-04 20:03 | -34.77645 | 133.22425 | 37265 ft | 503 kts | 124° |
| 2026-05-04 20:03 | -34.81302 | 133.29681 | 37266 ft | 503 kts | 124° |
| 2026-05-04 20:04 | -34.84956 | 133.36947 | 37267 ft | 503 kts | 124° |
| 2026-05-04 20:04 | -34.88586 | 133.44179 | 37270 ft | 503 kts | 124° |
| 2026-05-04 20:05 | -34.92226 | 133.51446 | 37265 ft | 503 kts | 124° |
| 2026-05-04 20:05 | -34.95870 | 133.58738 | 37266 ft | 503 kts | 123° |
| 2026-05-04 20:06 | -34.99510 | 133.66035 | 37265 ft | 503 kts | 124° |
| 2026-05-04 20:06 | -35.03120 | 133.73289 | 37265 ft | 503 kts | 124° |
| 2026-05-04 20:07 | -35.06749 | 133.80594 | 37264 ft | 503 kts | 123° |
| 2026-05-04 20:07 | -35.10376 | 133.87913 | 37265 ft | 503 kts | 124° |
| 2026-05-04 20:08 | -35.13996 | 133.95232 | 37265 ft | 503 kts | 123° |
| 2026-05-04 20:08 | -35.17617 | 134.02567 | 37258 ft | 503 kts | 124° |
| 2026-05-04 20:09 | -35.21234 | 134.09912 | 37267 ft | 503 kts | 124° |
| 2026-05-04 20:09 | -35.24818 | 134.17204 | 37248 ft | 504 kts | 123° |
| 2026-05-04 20:10 | -35.28423 | 134.24555 | 37253 ft | 504 kts | 124° |
| 2026-05-04 20:10 | -35.32027 | 134.31918 | 37251 ft | 504 kts | 123° |
| 2026-05-04 20:11 | -35.35625 | 134.39286 | 37268 ft | 504 kts | 123° |
| 2026-05-04 20:11 | -35.39217 | 134.46657 | 37247 ft | 504 kts | 123° |
| 2026-05-04 20:12 | -35.42811 | 134.54048 | 37249 ft | 504 kts | 123° |
| 2026-05-04 20:12 | -35.46394 | 134.61433 | 37254 ft | 504 kts | 124° |
| 2026-05-04 20:13 | -35.49976 | 134.68830 | 37258 ft | 504 kts | 124° |
| 2026-05-04 20:13 | -35.53531 | 134.76188 | 37247 ft | 504 kts | 124° |
| 2026-05-04 20:14 | -35.57106 | 134.83601 | 37247 ft | 504 kts | 123° |
| 2026-05-04 20:14 | -35.60682 | 134.91036 | 37247 ft | 504 kts | 123° |
| 2026-05-04 20:15 | -35.64247 | 134.98462 | 37261 ft | 504 kts | 123° |
| 2026-05-04 20:15 | -35.67635 | 135.06035 | 37245 ft | 506 kts | 119° |
| 2026-05-04 20:16 | -35.70624 | 135.13830 | 37242 ft | 507 kts | 117° |
| 2026-05-04 20:16 | -35.73618 | 135.21694 | 37250 ft | 507 kts | 118° |
| 2026-05-04 20:17 | -35.76667 | 135.29522 | 37230 ft | 507 kts | 118° |
| 2026-05-04 20:17 | -35.79743 | 135.37334 | 37242 ft | 507 kts | 118° |
| 2026-05-04 20:18 | -35.82817 | 135.45148 | 37242 ft | 506 kts | 118° |
| 2026-05-04 20:18 | -35.85882 | 135.52962 | 37241 ft | 507 kts | 118° |
| 2026-05-04 20:19 | -35.88948 | 135.60804 | 37236 ft | 507 kts | 118° |
| 2026-05-04 20:19 | -35.92002 | 135.68635 | 37239 ft | 507 kts | 118° |
| 2026-05-04 20:20 | -35.95037 | 135.76439 | 37241 ft | 507 kts | 118° |
| 2026-05-04 20:20 | -35.98086 | 135.84297 | 37250 ft | 507 kts | 118° |
| 2026-05-04 20:21 | -36.01128 | 135.92153 | 37238 ft | 508 kts | 118° |
| 2026-05-04 20:21 | -36.05687 | 136.03967 | 37238 ft | 508 kts | 118° |
| 2026-05-04 20:22 | -36.08726 | 136.11866 | 37239 ft | 508 kts | 118° |
| 2026-05-04 20:22 | -36.11756 | 136.19761 | 37233 ft | 509 kts | 118° |
| 2026-05-04 20:23 | -36.14788 | 136.27681 | 37244 ft | 509 kts | 118° |
| 2026-05-04 20:23 | -36.17792 | 136.35549 | 37233 ft | 509 kts | 118° |
| 2026-05-04 20:24 | -36.20813 | 136.43479 | 37233 ft | 509 kts | 118° |
| 2026-05-04 20:24 | -36.23832 | 136.51426 | 37231 ft | 509 kts | 118° |
| 2026-05-04 20:25 | -36.26846 | 136.59378 | 37232 ft | 510 kts | 118° |
| 2026-05-04 20:25 | -36.29853 | 136.67332 | 37229 ft | 510 kts | 118° |
| 2026-05-04 20:26 | -36.32859 | 136.75302 | 37226 ft | 510 kts | 118° |
| 2026-05-04 20:26 | -36.35860 | 136.83282 | 37223 ft | 511 kts | 118° |
| 2026-05-04 20:27 | -36.38859 | 136.91275 | 37220 ft | 511 kts | 118° |
| 2026-05-04 20:27 | -36.41855 | 136.99280 | 37221 ft | 511 kts | 118° |
| 2026-05-04 20:28 | -36.44839 | 137.07273 | 37237 ft | 511 kts | 118° |
| 2026-05-04 20:28 | -36.47802 | 137.15233 | 37230 ft | 511 kts | 118° |
| 2026-05-04 20:29 | -36.50779 | 137.23248 | 37223 ft | 511 kts | 118° |
| 2026-05-04 20:29 | -36.53757 | 137.31287 | 37218 ft | 511 kts | 118° |
| 2026-05-04 20:30 | -36.56725 | 137.39321 | 37228 ft | 511 kts | 118° |
| 2026-05-04 20:30 | -36.59690 | 137.47366 | 37216 ft | 512 kts | 118° |
| 2026-05-04 20:31 | -36.62654 | 137.55430 | 37217 ft | 512 kts | 118° |
| 2026-05-04 20:31 | -36.65591 | 137.63442 | 37219 ft | 512 kts | 118° |
| 2026-05-04 20:32 | -36.68542 | 137.71513 | 37215 ft | 512 kts | 117° |
| 2026-05-04 20:32 | -36.71493 | 137.79604 | 37213 ft | 512 kts | 117° |
| 2026-05-04 20:33 | -36.74443 | 137.87715 | 37212 ft | 513 kts | 117° |
| 2026-05-04 20:33 | -36.77388 | 137.95831 | 37211 ft | 513 kts | 117° |
| 2026-05-04 20:34 | -36.80326 | 138.03953 | 37209 ft | 513 kts | 117° |
| 2026-05-04 20:34 | -36.83260 | 138.12084 | 37205 ft | 514 kts | 117° |
| 2026-05-04 20:35 | -36.86174 | 138.20178 | 37206 ft | 514 kts | 117° |
| 2026-05-04 20:35 | -36.89094 | 138.28315 | 37219 ft | 514 kts | 117° |
| 2026-05-04 20:36 | -36.92017 | 138.36479 | 37204 ft | 514 kts | 117° |
| 2026-05-04 20:36 | -36.94932 | 138.44643 | 37200 ft | 515 kts | 117° |
| 2026-05-04 20:37 | -36.97844 | 138.52822 | 37208 ft | 515 kts | 117° |
| 2026-05-04 20:37 | -37.00754 | 138.61016 | 37197 ft | 515 kts | 117° |
| 2026-05-04 20:38 | -37.03657 | 138.69212 | 37200 ft | 515 kts | 117° |
| 2026-05-04 20:38 | -37.06539 | 138.77371 | 37200 ft | 515 kts | 117° |
| 2026-05-04 20:39 | -37.09437 | 138.85599 | 37195 ft | 516 kts | 117° |
| 2026-05-04 20:39 | -37.12326 | 138.93823 | 37192 ft | 516 kts | 117° |
| 2026-05-04 20:40 | -37.15210 | 139.02055 | 37194 ft | 516 kts | 117° |
| 2026-05-04 20:40 | -37.18094 | 139.10308 | 37192 ft | 516 kts | 117° |
| 2026-05-04 20:41 | -37.20956 | 139.18522 | 37192 ft | 516 kts | 117° |
| 2026-05-04 20:41 | -37.23829 | 139.26790 | 37190 ft | 516 kts | 117° |
| 2026-05-04 20:42 | -37.26692 | 139.35055 | 37189 ft | 516 kts | 117° |
| 2026-05-04 20:42 | -37.29553 | 139.43335 | 37190 ft | 517 kts | 117° |
| 2026-05-04 20:43 | -37.32411 | 139.51627 | 37187 ft | 517 kts | 116° |
| 2026-05-04 20:43 | -37.35244 | 139.59873 | 37187 ft | 517 kts | 116° |
| 2026-05-04 20:44 | -37.38091 | 139.68181 | 37184 ft | 517 kts | 116° |
| 2026-05-04 20:44 | -37.40931 | 139.76492 | 37180 ft | 517 kts | 116° |
| 2026-05-04 20:45 | -37.43768 | 139.84818 | 37181 ft | 517 kts | 116° |
| 2026-05-04 20:45 | -37.46598 | 139.93145 | 37194 ft | 517 kts | 116° |
| 2026-05-04 20:46 | -37.49407 | 140.01435 | 37182 ft | 517 kts | 116° |
| 2026-05-04 20:46 | -37.52223 | 140.09771 | 37174 ft | 517 kts | 116° |
| 2026-05-04 20:47 | -37.55037 | 140.18123 | 37188 ft | 517 kts | 116° |
| 2026-05-04 20:47 | -37.57848 | 140.26489 | 37180 ft | 518 kts | 116° |
| 2026-05-04 20:48 | -37.60647 | 140.34845 | 37176 ft | 518 kts | 116° |
| 2026-05-04 20:48 | -37.62972 | 140.41803 | 37191 ft | 518 kts | 116° |
| 2026-05-04 20:49 | -37.65765 | 140.50182 | 37167 ft | 518 kts | 116° |
| 2026-05-04 20:49 | -37.68553 | 140.58572 | 37168 ft | 518 kts | 116° |
| 2026-05-04 20:50 | -37.71335 | 140.66969 | 37164 ft | 519 kts | 116° |
| 2026-05-04 20:50 | -37.74072 | 140.75404 | 37183 ft | 521 kts | 111° |
| 2026-05-04 20:51 | -37.75388 | 140.84439 | 37178 ft | 526 kts | 97° |
| 2026-05-04 20:51 | -37.75854 | 140.93684 | 37172 ft | 528 kts | 94° |
| 2026-05-04 20:52 | -37.76172 | 141.02903 | 37171 ft | 528 kts | 94° |
| 2026-05-04 20:52 | -37.76496 | 141.12196 | 37185 ft | 528 kts | 94° |
| 2026-05-04 20:53 | -37.76838 | 141.21448 | 37170 ft | 528 kts | 94° |
| 2026-05-04 20:53 | -37.77184 | 141.30715 | 37167 ft | 527 kts | 94° |
| 2026-05-04 20:54 | -37.77525 | 141.39997 | 37171 ft | 528 kts | 94° |
| 2026-05-04 20:54 | -37.77855 | 141.49210 | 37170 ft | 528 kts | 94° |
| 2026-05-04 20:55 | -37.78179 | 141.58488 | 37173 ft | 528 kts | 94° |
| 2026-05-04 20:55 | -37.78496 | 141.67776 | 37170 ft | 528 kts | 94° |
| 2026-05-04 20:56 | -37.78805 | 141.77059 | 37170 ft | 528 kts | 94° |
| 2026-05-04 20:56 | -37.79107 | 141.86336 | 37171 ft | 529 kts | 94° |
| 2026-05-04 20:57 | -37.79402 | 141.95634 | 37065 ft | 527 kts | 94° |
| 2026-05-04 20:57 | -37.79543 | 142.00170 | 36908 ft | 518 kts | 94° |
| 2026-05-04 20:57 | -37.79682 | 142.04734 | 36886 ft | 512 kts | 94° |
| 2026-05-04 20:58 | -37.79955 | 142.13737 | 36584 ft | 513 kts | 94° |
| 2026-05-04 20:58 | -37.80089 | 142.18238 | 36003 ft | 512 kts | 94° |
| 2026-05-04 20:58 | -37.80220 | 142.22718 | 35086 ft | 507 kts | 94° |
| 2026-05-04 20:59 | -37.80349 | 142.27188 | 33781 ft | 511 kts | 94° |
| 2026-05-04 20:59 | -37.80478 | 142.31675 | 32957 ft | 508 kts | 94° |
| 2026-05-04 20:59 | -37.80607 | 142.36160 | 32321 ft | 510 kts | 94° |
| 2026-05-04 20:59 | -37.80730 | 142.40608 | 31583 ft | 514 kts | 94° |
| 2026-05-04 21:00 | -37.80852 | 142.45141 | 30864 ft | 516 kts | 94° |
| 2026-05-04 21:00 | -37.80973 | 142.49677 | 30282 ft | 514 kts | 94° |
| 2026-05-04 21:00 | -37.81092 | 142.54195 | 29815 ft | 515 kts | 94° |
| 2026-05-04 21:00 | -37.81211 | 142.58737 | 29276 ft | 517 kts | 94° |
| 2026-05-04 21:01 | -37.81328 | 142.63281 | 28791 ft | 514 kts | 94° |
| 2026-05-04 21:01 | -37.81441 | 142.67774 | 28250 ft | 509 kts | 94° |
| 2026-05-04 21:01 | -37.81551 | 142.72232 | 27676 ft | 504 kts | 94° |
| 2026-05-04 21:01 | -37.81659 | 142.76636 | 27161 ft | 499 kts | 94° |
| 2026-05-04 21:02 | -37.81764 | 142.80955 | 26620 ft | 495 kts | 94° |
| 2026-05-04 21:02 | -37.81867 | 142.85282 | 26101 ft | 490 kts | 94° |
| 2026-05-04 21:02 | -37.81968 | 142.89580 | 25563 ft | 486 kts | 94° |
| 2026-05-04 21:02 | -37.82067 | 142.93838 | 25061 ft | 482 kts | 94° |
| 2026-05-04 21:03 | -37.82164 | 142.98060 | 24565 ft | 478 kts | 94° |
| 2026-05-04 21:03 | -37.82257 | 143.02245 | 24092 ft | 474 kts | 94° |
| 2026-05-04 21:03 | -37.82349 | 143.06391 | 23567 ft | 469 kts | 94° |
| 2026-05-04 21:03 | -37.82438 | 143.10503 | 22991 ft | 465 kts | 94° |
| 2026-05-04 21:04 | -37.82526 | 143.14586 | 22429 ft | 461 kts | 94° |
| 2026-05-04 21:04 | -37.82609 | 143.18566 | 21929 ft | 456 kts | 94° |
| 2026-05-04 21:04 | -37.82692 | 143.22567 | 21449 ft | 453 kts | 94° |
| 2026-05-04 21:04 | -37.82773 | 143.26532 | 20976 ft | 449 kts | 94° |
| 2026-05-04 21:05 | -37.82852 | 143.30460 | 20530 ft | 443 kts | 94° |
| 2026-05-04 21:05 | -37.82928 | 143.34349 | 20079 ft | 439 kts | 94° |
| 2026-05-04 21:05 | -37.83003 | 143.38200 | 19574 ft | 434 kts | 94° |
| 2026-05-04 21:05 | -37.83075 | 143.41953 | 19105 ft | 431 kts | 94° |
| 2026-05-04 21:06 | -37.83146 | 143.45725 | 18621 ft | 427 kts | 94° |
| 2026-05-04 21:06 | -37.83215 | 143.49473 | 18116 ft | 424 kts | 94° |
| 2026-05-04 21:06 | -37.83282 | 143.53184 | 17585 ft | 420 kts | 94° |
| 2026-05-04 21:06 | -37.83347 | 143.56862 | 17111 ft | 416 kts | 94° |
| 2026-05-04 21:07 | -37.83412 | 143.60516 | 16667 ft | 414 kts | 94° |
| 2026-05-04 21:07 | -37.83474 | 143.64141 | 16196 ft | 411 kts | 94° |
| 2026-05-04 21:07 | -37.83535 | 143.67746 | 15713 ft | 408 kts | 95° |
| 2026-05-04 21:07 | -37.83594 | 143.71317 | 15264 ft | 405 kts | 95° |
| 2026-05-04 21:08 | -37.83651 | 143.74867 | 14813 ft | 402 kts | 95° |
| 2026-05-04 21:08 | -37.83708 | 143.78393 | 14348 ft | 400 kts | 95° |
| 2026-05-04 21:08 | -37.83763 | 143.81896 | 13889 ft | 397 kts | 95° |
| 2026-05-04 21:08 | -37.83816 | 143.85369 | 13398 ft | 393 kts | 95° |
| 2026-05-04 21:09 | -37.83868 | 143.88809 | 12939 ft | 391 kts | 95° |
| 2026-05-04 21:09 | -37.83919 | 143.92230 | 12520 ft | 387 kts | 95° |
| 2026-05-04 21:09 | -37.83967 | 143.95586 | 12311 ft | 376 kts | 95° |
| 2026-05-04 21:09 | -37.83868 | 143.98855 | 12132 ft | 368 kts | 88° |
| 2026-05-04 21:10 | -37.83541 | 144.02012 | 11747 ft | 355 kts | 86° |
| 2026-05-04 21:10 | -37.83187 | 144.05031 | 11021 ft | 347 kts | 85° |
| 2026-05-04 21:10 | -37.82833 | 144.08038 | 10862 ft | 349 kts | 86° |
| 2026-05-04 21:10 | -37.82482 | 144.11058 | 10781 ft | 342 kts | 86° |
| 2026-05-04 21:11 | -37.82138 | 144.13965 | 10612 ft | 327 kts | 86° |
| 2026-05-04 21:11 | -37.81811 | 144.16752 | 10374 ft | 315 kts | 86° |
| 2026-05-04 21:11 | -37.81495 | 144.19454 | 10054 ft | 308 kts | 86° |
| 2026-05-04 21:11 | -37.81185 | 144.22133 | 9647 ft | 307 kts | 86° |
| 2026-05-04 21:12 | -37.80878 | 144.24791 | 9321 ft | 303 kts | 86° |
| 2026-05-04 21:12 | -37.80575 | 144.27422 | 9079 ft | 303 kts | 85° |
| 2026-05-04 21:12 | -37.80268 | 144.30030 | 8832 ft | 302 kts | 85° |
| 2026-05-04 21:12 | -37.79959 | 144.32649 | 8529 ft | 301 kts | 85° |
| 2026-05-04 21:13 | -37.79652 | 144.35260 | 8213 ft | 300 kts | 85° |
| 2026-05-04 21:13 | -37.79345 | 144.37863 | 7889 ft | 299 kts | 84° |
| 2026-05-04 21:13 | -37.79039 | 144.40454 | 7606 ft | 297 kts | 84° |
| 2026-05-04 21:13 | -37.78734 | 144.43026 | 7296 ft | 296 kts | 84° |
| 2026-05-04 21:14 | -37.78609 | 144.45606 | 6963 ft | 292 kts | 97° |
| 2026-05-04 21:14 | -37.78866 | 144.48135 | 6676 ft | 289 kts | 102° |
| 2026-05-04 21:14 | -37.79191 | 144.50633 | 6421 ft | 286 kts | 102° |
| 2026-05-04 21:14 | -37.79507 | 144.53073 | 6291 ft | 277 kts | 102° |
| 2026-05-04 21:15 | -37.79810 | 144.55447 | 6144 ft | 269 kts | 102° |
| 2026-05-04 21:15 | -37.80103 | 144.57748 | 6020 ft | 261 kts | 102° |
| 2026-05-04 21:15 | -37.80387 | 144.59998 | 5841 ft | 257 kts | 102° |
| 2026-05-04 21:15 | -37.80664 | 144.62193 | 5608 ft | 255 kts | 102° |
| 2026-05-04 21:16 | -37.80943 | 144.64405 | 5353 ft | 254 kts | 102° |
| 2026-05-04 21:16 | -37.81220 | 144.66610 | 5085 ft | 254 kts | 102° |
| 2026-05-04 21:16 | -37.81497 | 144.68819 | 4823 ft | 254 kts | 102° |
| 2026-05-04 21:16 | -37.81772 | 144.71027 | 4560 ft | 254 kts | 102° |
| 2026-05-04 21:17 | -37.82184 | 144.73160 | 4395 ft | 244 kts | 117° |
| 2026-05-04 21:17 | -37.82904 | 144.75047 | 4297 ft | 233 kts | 123° |
| 2026-05-04 21:17 | -37.83661 | 144.76827 | 4165 ft | 227 kts | 123° |
| 2026-05-04 21:17 | -37.84231 | 144.78694 | 3927 ft | 231 kts | 103° |
| 2026-05-04 21:18 | -37.84198 | 144.80705 | 3845 ft | 224 kts | 85° |
| 2026-05-04 21:18 | -37.83972 | 144.82594 | 3710 ft | 212 kts | 84° |
| 2026-05-04 21:18 | -37.83713 | 144.84432 | 3386 ft | 213 kts | 78° |
| 2026-05-04 21:18 | -37.82971 | 144.86032 | 2947 ft | 213 kts | 37° |
| 2026-05-04 21:19 | -37.81643 | 144.86606 | 2551 ft | 196 kts | 351° |
| 2026-05-04 21:19 | -37.80319 | 144.86405 | 2310 ft | 190 kts | 342° |
| 2026-05-04 21:19 | -37.79046 | 144.86133 | 2054 ft | 181 kts | 342° |
| 2026-05-04 21:19 | -37.77850 | 144.85887 | 1831 ft | 170 kts | 342° |
| 2026-05-04 21:20 | -37.76695 | 144.85654 | 1612 ft | 168 kts | 343° |
| 2026-05-04 21:20 | -37.75532 | 144.85420 | 1382 ft | 169 kts | 344° |
| 2026-05-04 21:20 | -37.74409 | 144.85210 | 1137 ft | 156 kts | 346° |
| 2026-05-04 21:20 | -37.73385 | 144.85020 | 953 ft | 142 kts | 348° |
| 2026-05-04 21:21 | -37.72419 | 144.84835 | 789 ft | 139 kts | 348° |
| 2026-05-04 21:21 | -37.71468 | 144.84653 | 715 ft | 139 kts | 348° |
| 2026-05-04 21:21 | -37.70504 | 144.84469 | 686 ft | 140 kts | 348° |
| 2026-05-04 21:21 | -37.69537 | 144.84264 | 583 ft | 142 kts | 349° |
| 2026-05-04 21:22 | -37.68571 | 144.84088 | 394 ft | 138 kts | 350° |
| 2026-05-04 21:22 | -37.67701 | 144.83933 | 371 ft | 108 kts | 352° |
| 2026-05-04 21:22 | -37.67137 | 144.83830 | 386 ft | 55 kts | 351° |
| 2026-05-04 21:22 | -37.66843 | 144.83775 | 391 ft | 38 kts | 351° |
| 2026-05-04 21:23 | -37.66640 | 144.83738 | 402 ft | 10 kts | 353° |
| 2026-05-04 21:23 | -37.66578 | 144.83742 | 405 ft | 8 kts | 18° |
| 2026-05-04 21:23 | -37.66534 | 144.83787 | 406 ft | 8 kts | 51° |
| 2026-05-04 21:23 | -37.66511 | 144.83849 | 408 ft | 8 kts | 77° |
| 2026-05-04 21:24 | -37.66520 | 144.83918 | 404 ft | 10 kts | 120° |
| 2026-05-04 21:24 | -37.66602 | 144.83948 | 403 ft | 16 kts | 171° |
| 2026-05-04 21:24 | -37.66691 | 144.83966 | 399 ft | 8 kts | 163° |
| 2026-05-04 21:24 | -37.66722 | 144.84025 | 396 ft | 8 kts | 90° |
| 2026-05-04 21:25 | -37.66722 | 144.84105 | 395 ft | 10 kts | 103° |
| 2026-05-04 21:25 | -37.66782 | 144.84185 | 392 ft | 16 kts | 155° |
| 2026-05-04 21:25 | -37.66900 | 144.84213 | 392 ft | 19 kts | 172° |
| 2026-05-04 21:25 | -37.67037 | 144.84239 | 389 ft | 21 kts | 171° |
| 2026-05-04 21:26 | -37.67190 | 144.84267 | 386 ft | 23 kts | 171° |
| 2026-05-04 21:26 | -37.67356 | 144.84298 | 383 ft | 25 kts | 172° |
| 2026-05-04 21:26 | -37.67479 | 144.84344 | 380 ft | 6 kts | 120° |
| 2026-05-04 21:26 | -37.67480 | 144.84367 | 380 ft | 7 kts | 87° |
| 2026-05-04 21:27 | -37.67470 | 144.84440 | 382 ft | 9 kts | 81° |
| 2026-05-04 21:27 | -37.67483 | 144.84524 | 382 ft | 14 kts | 131° |
| 2026-05-04 21:27 | -37.67588 | 144.84557 | 379 ft | 17 kts | 172° |
| 2026-05-04 21:27 | -37.67717 | 144.84582 | 376 ft | 13 kts | 172° |
| 2026-05-04 21:28 | -37.67769 | 144.84629 | 376 ft | 10 kts | 129° |
| 2026-05-04 21:28 | -37.67782 | 144.84650 | 372 ft | 0 kts | 128° |
| 2026-05-04 21:28 | -37.67787 | 144.84659 | 375 ft | 4 kts | 128° |
| 2026-05-04 21:28 | -37.67810 | 144.84695 | 372 ft | 4 kts | 128° |
| 2026-05-04 21:29 | -37.67817 | 144.84706 | 371 ft | 0 kts | 128° |